sensor_id;sensor_type;location;lat;lon;timestamp;pressure;altitude;pressure_sealevel;temperature;humidity
70815;BME280;58428;49.478;10.986;2022-08-19T00:02:00;97781.00;;;21.25;75.77
70815;BME280;58428;49.478;10.986;2022-08-19T00:04:30;97779.31;;;21.35;74.96
70815;BME280;58428;49.478;10.986;2022-08-19T00:06:57;97770.66;;;21.40;74.71
70815;BME280;58428;49.478;10.986;2022-08-19T00:09:24;97769.09;;;21.35;74.46
70815;BME280;58428;49.478;10.986;2022-08-19T00:11:51;97768.25;;;21.38;74.76
70815;BME280;58428;49.478;10.986;2022-08-19T00:14:17;97768.03;;;21.26;74.92
70815;BME280;58428;49.478;10.986;2022-08-19T00:16:45;97769.16;;;21.28;75.21
70815;BME280;58428;49.478;10.986;2022-08-19T00:19:11;97773.03;;;21.34;74.78
70815;BME280;58428;49.478;10.986;2022-08-19T00:21:37;97773.00;;;21.38;74.54
70815;BME280;58428;49.478;10.986;2022-08-19T00:24:05;97766.69;;;21.41;74.33
70815;BME280;58428;49.478;10.986;2022-08-19T00:26:31;97761.16;;;21.44;73.94
70815;BME280;58428;49.478;10.986;2022-08-19T00:28:57;97762.75;;;21.42;74.41
70815;BME280;58428;49.478;10.986;2022-08-19T00:31:22;97757.25;;;21.42;74.08
70815;BME280;58428;49.478;10.986;2022-08-19T00:33:48;97750.59;;;21.39;73.93
70815;BME280;58428;49.478;10.986;2022-08-19T00:36:17;97759.28;;;21.34;73.93
70815;BME280;58428;49.478;10.986;2022-08-19T00:38:48;97762.19;;;21.20;74.65
70815;BME280;58428;49.478;10.986;2022-08-19T00:41:17;97765.53;;;21.02;75.37
70815;BME280;58428;49.478;10.986;2022-08-19T00:44:05;97764.50;;;20.89;76.17
70815;BME280;58428;49.478;10.986;2022-08-19T00:46:32;97774.75;;;20.85;75.97
70815;BME280;58428;49.478;10.986;2022-08-19T00:49:08;97766.50;;;20.85;75.70
70815;BME280;58428;49.478;10.986;2022-08-19T00:51:35;97781.44;;;20.84;76.49
70815;BME280;58428;49.478;10.986;2022-08-19T00:54:02;97784.28;;;20.73;77.38
70815;BME280;58428;49.478;10.986;2022-08-19T00:56:28;97789.00;;;20.73;77.28
70815;BME280;58428;49.478;10.986;2022-08-19T00:58:59;97803.06;;;20.82;77.19
70815;BME280;58428;49.478;10.986;2022-08-19T01:01:25;97800.63;;;20.91;76.54
70815;BME280;58428;49.478;10.986;2022-08-19T01:03:51;97793.53;;;20.93;76.79
70815;BME280;58428;49.478;10.986;2022-08-19T01:06:18;97791.88;;;20.99;76.42
70815;BME280;58428;49.478;10.986;2022-08-19T01:08:45;97791.78;;;21.09;76.02
70815;BME280;58428;49.478;10.986;2022-08-19T01:11:11;97787.75;;;21.17;75.58
70815;BME280;58428;49.478;10.986;2022-08-19T01:13:37;97791.38;;;21.11;76.24
70815;BME280;58428;49.478;10.986;2022-08-19T01:16:08;97792.25;;;21.01;76.21
70815;BME280;58428;49.478;10.986;2022-08-19T01:18:38;97801.72;;;21.00;76.42
70815;BME280;58428;49.478;10.986;2022-08-19T01:23:48;97798.09;;;21.06;75.86
70815;BME280;58428;49.478;10.986;2022-08-19T01:26:16;97810.50;;;21.21;75.50
70815;BME280;58428;49.478;10.986;2022-08-19T01:28:43;97804.56;;;21.26;75.08
70815;BME280;58428;49.478;10.986;2022-08-19T01:31:13;97802.59;;;21.27;75.54
70815;BME280;58428;49.478;10.986;2022-08-19T01:33:40;97801.38;;;21.31;75.58
70815;BME280;58428;49.478;10.986;2022-08-19T01:36:14;97800.31;;;21.22;76.02
70815;BME280;58428;49.478;10.986;2022-08-19T01:38:43;97792.88;;;21.15;76.16
70815;BME280;58428;49.478;10.986;2022-08-19T01:41:11;97803.53;;;21.13;76.25
70815;BME280;58428;49.478;10.986;2022-08-19T01:43:37;97808.97;;;21.20;76.02
70815;BME280;58428;49.478;10.986;2022-08-19T01:46:03;97804.56;;;21.26;75.93
70815;BME280;58428;49.478;10.986;2022-08-19T01:48:37;97806.63;;;21.15;76.59
70815;BME280;58428;49.478;10.986;2022-08-19T01:51:02;97808.19;;;21.20;76.80
70815;BME280;58428;49.478;10.986;2022-08-19T01:53:29;97819.97;;;21.20;76.35
70815;BME280;58428;49.478;10.986;2022-08-19T01:55:55;97822.34;;;21.18;76.34
70815;BME280;58428;49.478;10.986;2022-08-19T01:58:23;97819.66;;;21.11;76.77
70815;BME280;58428;49.478;10.986;2022-08-19T02:00:50;97828.19;;;21.24;76.38
70815;BME280;58428;49.478;10.986;2022-08-19T02:03:18;97821.84;;;21.27;75.74
70815;BME280;58428;49.478;10.986;2022-08-19T02:05:44;97819.06;;;21.30;75.59
70815;BME280;58428;49.478;10.986;2022-08-19T02:08:12;97809.69;;;21.28;76.04
70815;BME280;58428;49.478;10.986;2022-08-19T02:10:42;97811.59;;;21.31;75.53
70815;BME280;58428;49.478;10.986;2022-08-19T02:13:10;97805.28;;;21.34;75.14
70815;BME280;58428;49.478;10.986;2022-08-19T02:15:38;97809.56;;;21.38;75.16
70815;BME280;58428;49.478;10.986;2022-08-19T02:18:03;97824.81;;;21.46;74.51
70815;BME280;58428;49.478;10.986;2022-08-19T02:20:31;97832.69;;;21.47;74.64
70815;BME280;58428;49.478;10.986;2022-08-19T02:22:57;97837.44;;;21.43;74.62
70815;BME280;58428;49.478;10.986;2022-08-19T02:25:22;97849.63;;;21.42;74.90
70815;BME280;58428;49.478;10.986;2022-08-19T02:27:48;97849.34;;;21.30;75.10
70815;BME280;58428;49.478;10.986;2022-08-19T02:30:15;97850.34;;;21.10;75.96
70815;BME280;58428;49.478;10.986;2022-08-19T02:32:41;97851.03;;;21.17;75.88
70815;BME280;58428;49.478;10.986;2022-08-19T02:35:07;97854.16;;;21.19;76.07
70815;BME280;58428;49.478;10.986;2022-08-19T02:37:34;97849.88;;;21.15;75.73
70815;BME280;58428;49.478;10.986;2022-08-19T02:40:18;97846.28;;;21.21;75.71
70815;BME280;58428;49.478;10.986;2022-08-19T02:42:44;97856.88;;;21.23;75.93
70815;BME280;58428;49.478;10.986;2022-08-19T02:45:12;97871.75;;;21.29;75.39
70815;BME280;58428;49.478;10.986;2022-08-19T02:47:37;97873.75;;;21.28;75.48
70815;BME280;58428;49.478;10.986;2022-08-19T02:50:03;97866.19;;;21.39;74.72
70815;BME280;58428;49.478;10.986;2022-08-19T02:52:29;97871.59;;;21.49;74.75
70815;BME280;58428;49.478;10.986;2022-08-19T02:54:56;97867.34;;;21.38;74.77
70815;BME280;58428;49.478;10.986;2022-08-19T02:57:24;97861.19;;;21.27;75.59
70815;BME280;58428;49.478;10.986;2022-08-19T02:59:49;97862.75;;;21.25;75.44
70815;BME280;58428;49.478;10.986;2022-08-19T03:02:16;97866.38;;;21.18;75.94
70815;BME280;58428;49.478;10.986;2022-08-19T03:04:41;97861.25;;;21.17;75.87
70815;BME280;58428;49.478;10.986;2022-08-19T03:07:13;97869.91;;;21.19;75.72
70815;BME280;58428;49.478;10.986;2022-08-19T03:09:39;97855.91;;;21.03;76.59
70815;BME280;58428;49.478;10.986;2022-08-19T03:12:05;97857.91;;;20.99;76.79
70815;BME280;58428;49.478;10.986;2022-08-19T03:14:32;97855.53;;;21.01;76.71
70815;BME280;58428;49.478;10.986;2022-08-19T03:16:58;97851.66;;;20.95;77.81
70815;BME280;58428;49.478;10.986;2022-08-19T03:19:23;97843.38;;;20.99;77.27
70815;BME280;58428;49.478;10.986;2022-08-19T03:21:50;97843.88;;;20.87;77.83
70815;BME280;58428;49.478;10.986;2022-08-19T03:24:17;97845.72;;;21.00;76.93
70815;BME280;58428;49.478;10.986;2022-08-19T03:26:46;97838.59;;;21.06;76.90
70815;BME280;58428;49.478;10.986;2022-08-19T03:29:13;97841.28;;;21.09;76.10
70815;BME280;58428;49.478;10.986;2022-08-19T03:31:40;97836.88;;;21.19;75.45
70815;BME280;58428;49.478;10.986;2022-08-19T03:34:06;97831.03;;;21.13;75.26
70815;BME280;58428;49.478;10.986;2022-08-19T03:36:32;97822.50;;;21.01;75.88
70815;BME280;58428;49.478;10.986;2022-08-19T03:38:59;97819.00;;;21.01;75.94
70815;BME280;58428;49.478;10.986;2022-08-19T03:41:31;97812.66;;;21.03;75.68
70815;BME280;58428;49.478;10.986;2022-08-19T03:43:58;97813.03;;;21.05;75.42
70815;BME280;58428;49.478;10.986;2022-08-19T03:46:26;97815.00;;;21.05;75.32
70815;BME280;58428;49.478;10.986;2022-08-19T03:48:54;97814.66;;;21.00;75.68
70815;BME280;58428;49.478;10.986;2022-08-19T03:51:25;97813.09;;;21.02;75.92
70815;BME280;58428;49.478;10.986;2022-08-19T03:53:53;97820.97;;;21.00;75.69
70815;BME280;58428;49.478;10.986;2022-08-19T03:56:19;97817.44;;;20.96;75.81
70815;BME280;58428;49.478;10.986;2022-08-19T03:58:46;97812.78;;;20.90;76.14
70815;BME280;58428;49.478;10.986;2022-08-19T04:01:14;97805.78;;;20.85;76.01
70815;BME280;58428;49.478;10.986;2022-08-19T04:03:40;97804.56;;;20.86;75.98
70815;BME280;58428;49.478;10.986;2022-08-19T04:06:18;97799.78;;;20.94;75.48
70815;BME280;58428;49.478;10.986;2022-08-19T04:08:47;97795.50;;;20.93;75.56
70815;BME280;58428;49.478;10.986;2022-08-19T04:11:15;97807.28;;;20.93;75.51
70815;BME280;58428;49.478;10.986;2022-08-19T04:13:41;97799.00;;;20.97;75.37
70815;BME280;58428;49.478;10.986;2022-08-19T04:16:10;97810.75;;;20.97;75.48
70815;BME280;58428;49.478;10.986;2022-08-19T04:18:38;97805.25;;;20.97;75.05
70815;BME280;58428;49.478;10.986;2022-08-19T04:21:05;97818.63;;;20.99;74.98
70815;BME280;58428;49.478;10.986;2022-08-19T04:23:31;97829.53;;;21.05;74.85
70815;BME280;58428;49.478;10.986;2022-08-19T04:25:57;97831.91;;;21.03;74.54
70815;BME280;58428;49.478;10.986;2022-08-19T04:28:23;97830.28;;;21.09;74.30
70815;BME280;58428;49.478;10.986;2022-08-19T04:30:50;97839.88;;;20.95;74.75
70815;BME280;58428;49.478;10.986;2022-08-19T04:33:19;97841.13;;;20.87;74.98
70815;BME280;58428;49.478;10.986;2022-08-19T04:35:48;97850.53;;;20.86;74.99
70815;BME280;58428;49.478;10.986;2022-08-19T04:38:16;97852.91;;;20.84;74.92
70815;BME280;58428;49.478;10.986;2022-08-19T04:40:43;97852.53;;;20.85;75.03
70815;BME280;58428;49.478;10.986;2022-08-19T04:43:27;97860.38;;;20.87;74.78
70815;BME280;58428;49.478;10.986;2022-08-19T04:45:53;97861.91;;;20.91;74.73
70815;BME280;58428;49.478;10.986;2022-08-19T04:48:19;97869.00;;;20.89;74.97
70815;BME280;58428;49.478;10.986;2022-08-19T04:50:56;97871.81;;;20.78;75.15
70815;BME280;58428;49.478;10.986;2022-08-19T04:53:30;97880.06;;;20.78;75.37
70815;BME280;58428;49.478;10.986;2022-08-19T04:55:58;97883.91;;;20.91;74.78
70815;BME280;58428;49.478;10.986;2022-08-19T04:58:26;97892.56;;;20.90;74.76
70815;BME280;58428;49.478;10.986;2022-08-19T05:00:54;97887.81;;;20.90;74.85
70815;BME280;58428;49.478;10.986;2022-08-19T05:03:20;97889.50;;;20.77;75.37
70815;BME280;58428;49.478;10.986;2022-08-19T05:05:47;97886.78;;;20.74;75.40
70815;BME280;58428;49.478;10.986;2022-08-19T05:08:18;97885.63;;;20.71;75.71
70815;BME280;58428;49.478;10.986;2022-08-19T05:10:46;97889.91;;;20.79;75.70
70815;BME280;58428;49.478;10.986;2022-08-19T05:13:13;97903.16;;;20.91;75.00
70815;BME280;58428;49.478;10.986;2022-08-19T05:15:41;97913.66;;;21.03;74.79
70815;BME280;58428;49.478;10.986;2022-08-19T05:18:08;97908.50;;;21.12;74.34
70815;BME280;58428;49.478;10.986;2022-08-19T05:20:53;97913.91;;;21.19;74.23
70815;BME280;58428;49.478;10.986;2022-08-19T05:23:36;97921.75;;;21.24;73.74
70815;BME280;58428;49.478;10.986;2022-08-19T05:26:02;97930.00;;;21.24;73.75
70815;BME280;58428;49.478;10.986;2022-08-19T05:28:28;97930.53;;;21.08;74.95
70815;BME280;58428;49.478;10.986;2022-08-19T05:30:53;97936.78;;;21.12;74.45
70815;BME280;58428;49.478;10.986;2022-08-19T05:33:21;97934.06;;;21.09;74.54
70815;BME280;58428;49.478;10.986;2022-08-19T05:35:46;97932.00;;;21.20;74.33
70815;BME280;58428;49.478;10.986;2022-08-19T05:38:13;97925.41;;;21.10;74.77
70815;BME280;58428;49.478;10.986;2022-08-19T05:40:39;97921.91;;;21.03;75.22
70815;BME280;58428;49.478;10.986;2022-08-19T05:43:06;97921.19;;;20.96;75.51
70815;BME280;58428;49.478;10.986;2022-08-19T05:45:33;97917.63;;;20.99;75.24
70815;BME280;58428;49.478;10.986;2022-08-19T05:48:03;97916.38;;;21.10;75.04
70815;BME280;58428;49.478;10.986;2022-08-19T05:50:28;97924.16;;;21.18;74.60
70815;BME280;58428;49.478;10.986;2022-08-19T05:52:54;97932.34;;;21.25;74.55
70815;BME280;58428;49.478;10.986;2022-08-19T05:55:20;97931.84;;;21.41;74.19
70815;BME280;58428;49.478;10.986;2022-08-19T05:57:47;97927.03;;;21.51;73.97
70815;BME280;58428;49.478;10.986;2022-08-19T06:00:13;97934.94;;;21.46;74.45
70815;BME280;58428;49.478;10.986;2022-08-19T06:02:39;97923.50;;;21.51;73.78
70815;BME280;58428;49.478;10.986;2022-08-19T06:05:07;97926.91;;;21.62;73.94
70815;BME280;58428;49.478;10.986;2022-08-19T06:07:35;97921.41;;;21.62;73.46
70815;BME280;58428;49.478;10.986;2022-08-19T06:10:03;97912.56;;;21.77;73.45
70815;BME280;58428;49.478;10.986;2022-08-19T06:12:30;97909.66;;;21.91;73.20
70815;BME280;58428;49.478;10.986;2022-08-19T06:14:58;97914.00;;;21.92;73.25
70815;BME280;58428;49.478;10.986;2022-08-19T06:17:24;97921.06;;;21.93;72.96
70815;BME280;58428;49.478;10.986;2022-08-19T06:19:51;97924.31;;;21.84;72.57
70815;BME280;58428;49.478;10.986;2022-08-19T06:22:16;97924.50;;;22.00;72.85
70815;BME280;58428;49.478;10.986;2022-08-19T06:24:42;97919.06;;;22.30;72.09
70815;BME280;58428;49.478;10.986;2022-08-19T06:27:07;97918.16;;;22.40;71.56
70815;BME280;58428;49.478;10.986;2022-08-19T06:29:33;97915.31;;;22.43;71.55
70815;BME280;58428;49.478;10.986;2022-08-19T06:32:01;97915.41;;;22.40;71.68
70815;BME280;58428;49.478;10.986;2022-08-19T06:34:32;97908.34;;;22.35;71.31
70815;BME280;58428;49.478;10.986;2022-08-19T06:37:00;97908.50;;;22.25;71.64
70815;BME280;58428;49.478;10.986;2022-08-19T06:39:30;97910.69;;;22.37;71.31
70815;BME280;58428;49.478;10.986;2022-08-19T06:41:59;97904.38;;;22.40;71.00
70815;BME280;58428;49.478;10.986;2022-08-19T06:44:28;97907.13;;;22.40;71.43
70815;BME280;58428;49.478;10.986;2022-08-19T06:46:54;97912.84;;;22.52;71.25
70815;BME280;58428;49.478;10.986;2022-08-19T06:49:22;97911.56;;;22.86;71.13
70815;BME280;58428;49.478;10.986;2022-08-19T06:51:50;97905.22;;;23.15;70.34
70815;BME280;58428;49.478;10.986;2022-08-19T06:54:18;97912.47;;;23.28;69.59
70815;BME280;58428;49.478;10.986;2022-08-19T06:56:44;97921.47;;;23.32;68.98
70815;BME280;58428;49.478;10.986;2022-08-19T06:59:13;97925.97;;;23.23;68.71
70815;BME280;58428;49.478;10.986;2022-08-19T07:01:45;97933.72;;;23.31;67.95
70815;BME280;58428;49.478;10.986;2022-08-19T07:04:13;97942.59;;;23.20;68.21
70815;BME280;58428;49.478;10.986;2022-08-19T07:06:41;97940.28;;;23.15;68.69
70815;BME280;58428;49.478;10.986;2022-08-19T07:09:08;97943.31;;;22.97;68.65
70815;BME280;58428;49.478;10.986;2022-08-19T07:11:34;97946.03;;;23.01;68.49
70815;BME280;58428;49.478;10.986;2022-08-19T07:14:00;97948.56;;;22.92;69.10
70815;BME280;58428;49.478;10.986;2022-08-19T07:16:26;97946.84;;;23.01;68.77
70815;BME280;58428;49.478;10.986;2022-08-19T07:18:53;97946.97;;;22.91;69.42
70815;BME280;58428;49.478;10.986;2022-08-19T07:21:21;97944.16;;;22.94;69.27
70815;BME280;58428;49.478;10.986;2022-08-19T07:23:48;97945.31;;;22.97;68.60
70815;BME280;58428;49.478;10.986;2022-08-19T07:26:21;97962.00;;;23.13;68.88
70815;BME280;58428;49.478;10.986;2022-08-19T07:28:48;97965.13;;;23.15;68.04
70815;BME280;58428;49.478;10.986;2022-08-19T07:31:18;97964.25;;;22.95;68.86
70815;BME280;58428;49.478;10.986;2022-08-19T07:33:46;97962.50;;;23.08;68.61
70815;BME280;58428;49.478;10.986;2022-08-19T07:36:13;97961.97;;;23.16;68.05
70815;BME280;58428;49.478;10.986;2022-08-19T07:38:41;97958.84;;;23.14;68.26
70815;BME280;58428;49.478;10.986;2022-08-19T07:41:10;97967.34;;;23.27;67.82
70815;BME280;58428;49.478;10.986;2022-08-19T07:43:38;97965.06;;;23.18;68.02
70815;BME280;58428;49.478;10.986;2022-08-19T07:46:04;97977.84;;;23.09;68.14
70815;BME280;58428;49.478;10.986;2022-08-19T07:48:30;97976.31;;;22.78;68.46
70815;BME280;58428;49.478;10.986;2022-08-19T07:50:58;97983.66;;;22.58;69.42
70815;BME280;58428;49.478;10.986;2022-08-19T07:53:27;97984.16;;;22.50;69.94
70815;BME280;58428;49.478;10.986;2022-08-19T07:55:53;97975.97;;;22.43;70.38
70815;BME280;58428;49.478;10.986;2022-08-19T07:58:21;97986.69;;;22.01;72.01
70815;BME280;58428;49.478;10.986;2022-08-19T08:00:49;97981.34;;;21.87;71.97
70815;BME280;58428;49.478;10.986;2022-08-19T08:03:18;97980.53;;;21.87;72.41
70815;BME280;58428;49.478;10.986;2022-08-19T08:05:44;97977.69;;;21.97;71.88
70815;BME280;58428;49.478;10.986;2022-08-19T08:08:28;97980.09;;;21.92;71.83
70815;BME280;58428;49.478;10.986;2022-08-19T08:11:17;97976.97;;;21.90;72.01
70815;BME280;58428;49.478;10.986;2022-08-19T08:13:43;97969.50;;;21.90;72.29
70815;BME280;58428;49.478;10.986;2022-08-19T08:16:09;97970.50;;;22.07;72.24
70815;BME280;58428;49.478;10.986;2022-08-19T08:18:35;97962.44;;;22.26;71.97
70815;BME280;58428;49.478;10.986;2022-08-19T08:21:08;97959.34;;;22.50;70.96
70815;BME280;58428;49.478;10.986;2022-08-19T08:23:34;97968.28;;;22.61;70.41
70815;BME280;58428;49.478;10.986;2022-08-19T08:26:00;97972.13;;;22.67;69.80
70815;BME280;58428;49.478;10.986;2022-08-19T08:28:27;97977.59;;;22.70;69.51
70815;BME280;58428;49.478;10.986;2022-08-19T08:30:54;97965.47;;;22.94;69.13
70815;BME280;58428;49.478;10.986;2022-08-19T08:33:21;97967.78;;;22.95;69.05
70815;BME280;58428;49.478;10.986;2022-08-19T08:35:48;97943.78;;;23.19;68.28
70815;BME280;58428;49.478;10.986;2022-08-19T08:38:15;97941.94;;;23.35;68.39
70815;BME280;58428;49.478;10.986;2022-08-19T08:48:59;97939.78;;;24.10;64.21
70815;BME280;58428;49.478;10.986;2022-08-19T08:51:42;97953.03;;;24.19;64.23
70815;BME280;58428;49.478;10.986;2022-08-19T08:54:12;97955.75;;;23.80;64.53
70815;BME280;58428;49.478;10.986;2022-08-19T08:56:40;97961.47;;;23.70;64.73
70815;BME280;58428;49.478;10.986;2022-08-19T08:59:28;97964.09;;;23.54;64.71
70815;BME280;58428;49.478;10.986;2022-08-19T09:01:56;97957.84;;;23.27;65.92
70815;BME280;58428;49.478;10.986;2022-08-19T09:04:22;97966.22;;;23.21;66.28
70815;BME280;58428;49.478;10.986;2022-08-19T09:09:46;97966.66;;;22.93;66.29
70815;BME280;58428;49.478;10.986;2022-08-19T09:12:49;97963.88;;;22.93;66.69
70815;BME280;58428;49.478;10.986;2022-08-19T09:15:25;97968.09;;;23.01;66.44
70815;BME280;58428;49.478;10.986;2022-08-19T09:17:53;97975.03;;;22.86;66.67
70815;BME280;58428;49.478;10.986;2022-08-19T09:20:22;97973.00;;;22.60;67.59
70815;BME280;58428;49.478;10.986;2022-08-19T09:22:48;97972.13;;;22.67;67.69
70815;BME280;58428;49.478;10.986;2022-08-19T09:25:20;97970.00;;;22.78;67.66
70815;BME280;58428;49.478;10.986;2022-08-19T09:27:50;97977.09;;;22.79;67.38
70815;BME280;58428;49.478;10.986;2022-08-19T09:30:27;97979.69;;;22.63;67.74
70815;BME280;58428;49.478;10.986;2022-08-19T09:32:54;97976.28;;;22.52;68.22
70815;BME280;58428;49.478;10.986;2022-08-19T09:35:25;97986.16;;;22.50;68.35
70815;BME280;58428;49.478;10.986;2022-08-19T09:37:52;97983.41;;;22.50;68.30
70815;BME280;58428;49.478;10.986;2022-08-19T09:40:18;97988.66;;;22.37;68.48
70815;BME280;58428;49.478;10.986;2022-08-19T09:42:45;97984.38;;;22.33;68.78
70815;BME280;58428;49.478;10.986;2022-08-19T09:45:16;97989.63;;;22.24;68.94
70815;BME280;58428;49.478;10.986;2022-08-19T09:47:43;97981.84;;;22.16;69.52
70815;BME280;58428;49.478;10.986;2022-08-19T09:50:12;97974.47;;;22.02;69.91
70815;BME280;58428;49.478;10.986;2022-08-19T09:52:38;97977.59;;;22.04;70.19
70815;BME280;58428;49.478;10.986;2022-08-19T09:55:09;97963.09;;;22.00;70.52
70815;BME280;58428;49.478;10.986;2022-08-19T09:57:35;97965.44;;;22.02;70.42
70815;BME280;58428;49.478;10.986;2022-08-19T10:00:04;97969.19;;;22.18;70.43
70815;BME280;58428;49.478;10.986;2022-08-19T10:02:30;97973.75;;;22.31;70.18
70815;BME280;58428;49.478;10.986;2022-08-19T10:04:55;97973.16;;;22.50;69.77
70815;BME280;58428;49.478;10.986;2022-08-19T10:07:39;97977.22;;;22.68;69.45
70815;BME280;58428;49.478;10.986;2022-08-19T10:10:06;97980.09;;;22.91;68.64
70815;BME280;58428;49.478;10.986;2022-08-19T10:12:34;97980.84;;;22.91;68.03
70815;BME280;58428;49.478;10.986;2022-08-19T10:15:01;97986.81;;;22.90;67.67
70815;BME280;58428;49.478;10.986;2022-08-19T10:17:27;97989.50;;;22.64;68.24
70815;BME280;58428;49.478;10.986;2022-08-19T10:19:54;97983.88;;;22.41;68.83
70815;BME280;58428;49.478;10.986;2022-08-19T10:22:20;97978.06;;;22.36;69.19
70815;BME280;58428;49.478;10.986;2022-08-19T10:24:46;97987.44;;;22.42;68.81
70815;BME280;58428;49.478;10.986;2022-08-19T10:27:13;97990.22;;;22.38;69.32
70815;BME280;58428;49.478;10.986;2022-08-19T10:29:39;97984.84;;;22.28;69.81
70815;BME280;58428;49.478;10.986;2022-08-19T10:32:07;97993.88;;;22.32;69.57
70815;BME280;58428;49.478;10.986;2022-08-19T10:34:34;97987.09;;;22.36;69.45
70815;BME280;58428;49.478;10.986;2022-08-19T10:37:01;97989.34;;;22.45;69.24
70815;BME280;58428;49.478;10.986;2022-08-19T10:39:29;97984.31;;;22.69;68.54
70815;BME280;58428;49.478;10.986;2022-08-19T10:41:56;97987.28;;;22.82;67.76
70815;BME280;58428;49.478;10.986;2022-08-19T10:44:22;97996.16;;;22.66;68.48
70815;BME280;58428;49.478;10.986;2022-08-19T10:46:49;97991.84;;;22.65;68.47
70815;BME280;58428;49.478;10.986;2022-08-19T10:49:15;97992.22;;;22.67;68.28
70815;BME280;58428;49.478;10.986;2022-08-19T10:51:41;97991.34;;;22.74;68.25
70815;BME280;58428;49.478;10.986;2022-08-19T10:54:26;97983.97;;;22.93;67.97
70815;BME280;58428;49.478;10.986;2022-08-19T10:57:11;97987.22;;;22.89;67.10
70815;BME280;58428;49.478;10.986;2022-08-19T10:59:37;97986.97;;;22.76;67.75
70815;BME280;58428;49.478;10.986;2022-08-19T11:02:07;97983.28;;;22.86;67.40
70815;BME280;58428;49.478;10.986;2022-08-19T11:04:35;97978.97;;;22.85;67.07
70815;BME280;58428;49.478;10.986;2022-08-19T11:07:03;97994.78;;;22.81;67.43
70815;BME280;58428;49.478;10.986;2022-08-19T11:09:31;97985.09;;;22.70;67.50
70815;BME280;58428;49.478;10.986;2022-08-19T11:11:56;97983.06;;;22.74;67.43
70815;BME280;58428;49.478;10.986;2022-08-19T11:14:23;97993.03;;;22.64;67.56
70815;BME280;58428;49.478;10.986;2022-08-19T11:16:51;97987.25;;;22.55;67.96
70815;BME280;58428;49.478;10.986;2022-08-19T11:19:18;98001.41;;;22.57;68.18
70815;BME280;58428;49.478;10.986;2022-08-19T11:21:46;97990.47;;;22.51;68.14
70815;BME280;58428;49.478;10.986;2022-08-19T11:24:16;97990.09;;;22.49;68.63
70815;BME280;58428;49.478;10.986;2022-08-19T11:26:44;97990.94;;;22.46;68.93
70815;BME280;58428;49.478;10.986;2022-08-19T11:29:12;97987.75;;;22.47;68.74
70815;BME280;58428;49.478;10.986;2022-08-19T11:31:42;97985.06;;;22.44;68.98
70815;BME280;58428;49.478;10.986;2022-08-19T11:34:10;97994.06;;;22.48;68.81
70815;BME280;58428;49.478;10.986;2022-08-19T11:36:40;97990.66;;;22.33;69.42
70815;BME280;58428;49.478;10.986;2022-08-19T11:39:07;97990.00;;;22.26;70.06
70815;BME280;58428;49.478;10.986;2022-08-19T11:41:33;97981.25;;;22.31;69.82
70815;BME280;58428;49.478;10.986;2022-08-19T11:43:59;97979.94;;;22.42;69.95
70815;BME280;58428;49.478;10.986;2022-08-19T11:46:26;97978.50;;;22.60;69.48
70815;BME280;58428;49.478;10.986;2022-08-19T11:48:56;97974.38;;;22.75;69.01
70815;BME280;58428;49.478;10.986;2022-08-19T11:51:25;97973.59;;;22.75;69.23
70815;BME280;58428;49.478;10.986;2022-08-19T11:53:55;97972.34;;;22.79;69.72
70815;BME280;58428;49.478;10.986;2022-08-19T11:56:22;97964.56;;;22.74;69.17
70815;BME280;58428;49.478;10.986;2022-08-19T11:58:49;97963.44;;;22.68;70.21
70815;BME280;58428;49.478;10.986;2022-08-19T12:01:19;97963.78;;;22.70;71.40
70815;BME280;58428;49.478;10.986;2022-08-19T12:03:48;97968.03;;;22.78;70.90
70815;BME280;58428;49.478;10.986;2022-08-19T12:06:17;97964.69;;;22.64;71.72
70815;BME280;58428;49.478;10.986;2022-08-19T12:08:45;97963.88;;;22.67;71.12
70815;BME280;58428;49.478;10.986;2022-08-19T12:11:12;97973.69;;;22.68;70.62
70815;BME280;58428;49.478;10.986;2022-08-19T12:13:39;97965.44;;;22.64;70.36
70815;BME280;58428;49.478;10.986;2022-08-19T12:16:23;97972.69;;;22.55;71.75
70815;BME280;58428;49.478;10.986;2022-08-19T12:18:50;97966.59;;;22.37;72.92
70815;BME280;58428;49.478;10.986;2022-08-19T12:21:20;97975.78;;;22.27;74.43
70815;BME280;58428;49.478;10.986;2022-08-19T12:23:48;97970.88;;;22.09;74.96
70815;BME280;58428;49.478;10.986;2022-08-19T12:26:14;97975.97;;;22.10;74.69
70815;BME280;58428;49.478;10.986;2022-08-19T12:28:40;97977.97;;;22.06;75.94
70815;BME280;58428;49.478;10.986;2022-08-19T12:31:06;97983.63;;;21.92;75.76
70815;BME280;58428;49.478;10.986;2022-08-19T12:33:33;97985.69;;;21.85;75.82
70815;BME280;58428;49.478;10.986;2022-08-19T12:36:04;97977.97;;;21.70;76.45
70815;BME280;58428;49.478;10.986;2022-08-19T12:38:32;97967.28;;;21.32;79.47
70815;BME280;58428;49.478;10.986;2022-08-19T12:40:58;97976.75;;;21.27;79.28
70815;BME280;58428;49.478;10.986;2022-08-19T12:43:24;97974.44;;;21.19;80.08
70815;BME280;58428;49.478;10.986;2022-08-19T12:45:49;97976.72;;;21.31;80.29
70815;BME280;58428;49.478;10.986;2022-08-19T12:48:16;97976.78;;;21.24;80.17
70815;BME280;58428;49.478;10.986;2022-08-19T12:50:43;97980.72;;;21.19;80.69
70815;BME280;58428;49.478;10.986;2022-08-19T12:53:11;97983.91;;;21.18;81.29
70815;BME280;58428;49.478;10.986;2022-08-19T12:55:36;97966.19;;;21.22;81.74
70815;BME280;58428;49.478;10.986;2022-08-19T12:58:02;97974.72;;;21.35;82.51
70815;BME280;58428;49.478;10.986;2022-08-19T13:00:29;97980.19;;;21.45;81.52
70815;BME280;58428;49.478;10.986;2022-08-19T13:02:56;97978.19;;;21.49;80.96
70815;BME280;58428;49.478;10.986;2022-08-19T13:05:24;97983.97;;;21.58;80.65
70815;BME280;58428;49.478;10.986;2022-08-19T13:07:51;97990.69;;;21.57;80.87
70815;BME280;58428;49.478;10.986;2022-08-19T13:10:23;97986.69;;;21.65;81.24